createdAt,value
2019-03-23T00:02:14.913Z,60.90
2019-03-23T00:04:45.952Z,61.04
2019-03-23T00:07:17.611Z,60.78
2019-03-23T00:09:48.895Z,59.96
2019-03-23T00:12:20.004Z,60.18
2019-03-23T00:14:51.566Z,60.25
2019-03-23T00:17:22.706Z,59.52
2019-03-23T00:19:55.795Z,60.02
2019-03-23T00:22:27.926Z,59.91
2019-03-23T00:24:59.161Z,59.45
2019-03-23T00:27:30.353Z,59.76
2019-03-23T00:30:01.370Z,59.49
2019-03-23T00:32:32.572Z,58.93
2019-03-23T00:35:05.036Z,59.23
2019-03-23T00:37:36.341Z,59.00
2019-03-23T00:40:08.740Z,59.24
2019-03-23T00:42:48.093Z,58.42
2019-03-23T00:45:19.437Z,58.81
2019-03-23T00:47:50.622Z,58.15
2019-03-23T00:50:21.759Z,57.89
2019-03-23T00:52:52.968Z,58.03
2019-03-23T00:55:25.912Z,58.40
2019-03-23T00:57:57.054Z,58.18
2019-03-23T01:00:28.038Z,56.82
2019-03-23T01:02:59.200Z,57.13
2019-03-23T01:05:30.419Z,57.14
2019-03-23T01:08:01.570Z,57.57
2019-03-23T01:10:33.330Z,56.74
2019-03-23T01:13:04.548Z,56.77
2019-03-23T01:15:35.726Z,57.46
2019-03-23T01:18:09.121Z,57.90
2019-03-23T01:20:49.551Z,57.91
2019-03-23T01:23:16.521Z,58.04
2019-03-23T01:25:47.781Z,57.92
2019-03-23T01:28:19.350Z,57.79
2019-03-23T01:30:50.521Z,57.84
2019-03-23T01:33:21.722Z,57.94
2019-03-23T01:35:53.300Z,57.87
2019-03-23T01:38:24.318Z,57.79
2019-03-23T01:40:55.711Z,57.61
2019-03-23T01:43:27.328Z,57.98
2019-03-23T01:45:58.473Z,58.43
2019-03-23T01:48:30.024Z,58.07
2019-03-23T01:51:02.005Z,58.43
2019-03-23T01:53:33.222Z,58.14
2019-03-23T01:56:04.465Z,58.04
2019-03-23T01:58:35.564Z,57.99
2019-03-23T02:01:07.611Z,57.77
2019-03-23T02:03:38.753Z,57.73
2019-03-23T02:06:10.826Z,57.20
2019-03-23T02:08:41.927Z,57.37
2019-03-23T02:11:13.377Z,56.90
2019-03-23T02:13:44.760Z,57.25
2019-03-23T02:16:15.706Z,57.23
2019-03-23T02:18:46.739Z,57.13
2019-03-23T02:21:19.476Z,56.56
2019-03-23T02:23:50.620Z,56.80
2019-03-23T02:26:21.785Z,56.97
2019-03-23T02:28:57.873Z,57.52
2019-03-23T02:31:30.108Z,57.78
2019-03-23T02:34:01.249Z,57.99
2019-03-23T02:36:32.401Z,58.17
2019-03-23T02:39:04.599Z,58.39
2019-03-23T02:41:36.826Z,58.01
2019-03-23T02:44:07.977Z,58.53
2019-03-23T02:46:39.219Z,58.05
2019-03-23T02:49:10.627Z,58.05
2019-03-23T02:51:41.881Z,57.85
2019-03-23T02:54:13.362Z,57.76
2019-03-23T02:56:44.350Z,58.32
2019-03-23T02:59:15.540Z,58.33
2019-03-23T03:01:46.745Z,58.19
2019-03-23T03:04:17.732Z,58.73
2019-03-23T03:06:48.837Z,58.54
2019-03-23T03:09:19.928Z,57.99
2019-03-23T03:11:51.610Z,57.93
2019-03-23T03:14:22.680Z,58.10
2019-03-23T03:16:54.574Z,57.96
2019-03-23T03:19:25.523Z,58.28
2019-03-23T03:21:58.059Z,57.65
2019-03-23T03:24:29.155Z,57.27
2019-03-23T03:27:00.131Z,57.31
2019-03-23T03:29:31.497Z,57.23
2019-03-23T03:32:02.771Z,57.31
2019-03-23T03:34:35.548Z,57.36
2019-03-23T03:37:06.544Z,57.41
2019-03-23T03:39:37.477Z,57.53
2019-03-23T03:42:09.570Z,57.69
2019-03-23T03:44:41.255Z,57.72
2019-03-23T03:47:12.468Z,57.96
2019-03-23T03:49:44.366Z,58.23
2019-03-23T03:52:15.654Z,58.49
2019-03-23T03:54:47.062Z,58.63
2019-03-23T03:57:19.320Z,58.51
2019-03-23T03:59:50.956Z,58.62
2019-03-23T04:02:22.294Z,58.35
2019-03-23T04:04:54.605Z,58.87
2019-03-23T04:07:28.202Z,59.11
2019-03-23T04:09:59.036Z,59.63
2019-03-23T04:12:30.021Z,60.01
2019-03-23T04:15:01.271Z,60.31
2019-03-23T04:17:32.371Z,59.88
2019-03-23T04:20:05.388Z,59.99
2019-03-23T04:22:38.033Z,60.00
2019-03-23T04:25:10.637Z,59.75
2019-03-23T04:27:41.747Z,59.98
2019-03-23T04:30:12.907Z,60.06
2019-03-23T04:32:45.172Z,60.29
2019-03-23T04:35:16.514Z,60.37
2019-03-23T04:37:47.865Z,60.07
2019-03-23T04:40:18.923Z,60.25
2019-03-23T04:42:50.022Z,60.25
2019-03-23T04:45:21.505Z,60.35
2019-03-23T04:47:53.880Z,60.25
2019-03-23T04:50:24.961Z,60.66
2019-03-23T04:52:56.161Z,60.46
2019-03-23T04:55:27.824Z,61.00
2019-03-23T04:57:59.667Z,60.98
2019-03-23T05:00:30.862Z,60.11
2019-03-23T05:03:02.076Z,59.75
2019-03-23T05:05:33.632Z,59.95
2019-03-23T05:08:05.177Z,59.70
2019-03-23T05:10:36.461Z,59.58
2019-03-23T05:13:07.574Z,59.25
2019-03-23T05:15:39.775Z,59.27
2019-03-23T05:18:10.734Z,59.18
2019-03-23T05:20:42.555Z,59.43
2019-03-23T05:23:15.534Z,59.59
2019-03-23T05:25:46.883Z,59.94
2019-03-23T05:28:19.004Z,59.92
2019-03-23T05:30:50.323Z,59.90
2019-03-23T05:33:21.369Z,60.07
2019-03-23T05:35:52.380Z,60.16
2019-03-23T05:38:23.566Z,60.70
2019-03-23T05:41:01.364Z,59.84
2019-03-23T05:43:32.467Z,59.66
2019-03-23T05:46:05.152Z,60.27
2019-03-23T05:48:36.210Z,60.39
2019-03-23T05:51:08.582Z,60.39
2019-03-23T05:53:39.639Z,59.82
2019-03-23T05:56:11.969Z,59.49
2019-03-23T05:58:43.074Z,59.41
2019-03-23T06:01:15.812Z,58.89
2019-03-23T06:03:46.785Z,58.95
2019-03-23T06:06:19.800Z,59.51
2019-03-23T06:08:55.215Z,58.90
2019-03-23T06:11:24.201Z,58.73
2019-03-23T06:14:00.211Z,59.29
2019-03-23T06:16:31.488Z,58.22
2019-03-23T06:19:02.471Z,58.20
2019-03-23T06:21:33.513Z,56.89
2019-03-23T06:24:06.232Z,55.82
2019-03-23T06:26:38.561Z,56.17
2019-03-23T06:29:09.685Z,56.83
2019-03-23T06:31:40.816Z,57.08
2019-03-23T06:34:11.899Z,57.13
2019-03-23T06:36:42.909Z,56.68
2019-03-23T06:39:15.261Z,54.69
2019-03-23T06:41:46.640Z,55.00
2019-03-23T06:44:18.482Z,55.25
2019-03-23T06:46:49.541Z,55.35
2019-03-23T06:49:21.162Z,55.63
2019-03-23T06:51:52.180Z,56.01
2019-03-23T06:54:23.283Z,56.68
2019-03-23T06:56:54.308Z,55.53
2019-03-23T06:59:25.247Z,55.42
2019-03-23T07:01:56.504Z,55.99
2019-03-23T07:04:27.532Z,55.50
2019-03-23T07:06:58.612Z,55.66
2019-03-23T07:09:29.840Z,55.89
2019-03-23T07:12:06.139Z,55.88
2019-03-23T07:14:37.140Z,56.71
2019-03-23T07:17:08.354Z,55.86
2019-03-23T07:19:40.040Z,55.01
2019-03-23T07:22:11.981Z,55.85
2019-03-23T07:24:46.824Z,54.53
2019-03-23T07:27:22.692Z,53.51
2019-03-23T07:29:53.731Z,53.01
2019-03-23T07:32:24.874Z,53.78
2019-03-23T07:34:57.085Z,54.31
2019-03-23T07:37:28.289Z,54.85
2019-03-23T07:39:59.415Z,52.61
2019-03-23T07:42:30.601Z,53.49
2019-03-23T07:45:01.592Z,53.81
2019-03-23T07:47:32.689Z,53.80
2019-03-23T07:50:07.915Z,51.52
2019-03-23T07:52:39.692Z,52.43
2019-03-23T07:55:15.595Z,51.12
2019-03-23T07:57:47.729Z,52.41
2019-03-23T08:00:25.507Z,52.75
2019-03-23T08:02:56.752Z,54.57
2019-03-23T08:05:27.695Z,55.85
2019-03-23T08:07:58.939Z,55.09
2019-03-23T08:10:33.118Z,56.62
2019-03-23T08:13:06.746Z,59.14
2019-03-23T08:15:37.993Z,61.17
2019-03-23T08:18:09.601Z,60.07
2019-03-23T08:20:40.827Z,59.07
2019-03-23T08:23:12.287Z,56.70
2019-03-23T08:25:46.367Z,56.16
2019-03-23T08:28:19.700Z,55.69
2019-03-23T08:30:50.871Z,57.47
2019-03-23T08:33:22.061Z,59.36
2019-03-23T08:35:53.742Z,59.51
2019-03-23T08:38:25.244Z,59.15
2019-03-23T08:40:56.206Z,58.59
2019-03-23T08:43:27.284Z,59.81
2019-03-23T08:46:00.228Z,61.65
2019-03-23T08:48:31.346Z,66.05
2019-03-23T08:51:12.787Z,68.19
2019-03-23T08:53:43.849Z,67.28
2019-03-23T08:56:14.872Z,66.23
2019-03-23T08:58:45.932Z,66.39
2019-03-23T09:01:16.960Z,67.57
2019-03-23T09:03:52.383Z,65.70
2019-03-23T09:06:21.265Z,65.97
2019-03-23T09:08:52.353Z,64.49
2019-03-23T09:11:24.454Z,64.38
2019-03-23T09:13:55.461Z,65.98
2019-03-23T09:16:26.643Z,65.41
2019-03-23T09:18:57.826Z,64.70
2019-03-23T09:21:29.133Z,64.44
2019-03-23T09:24:00.307Z,64.41
2019-03-23T09:26:33.110Z,63.92
2019-03-23T09:29:04.093Z,64.83
2019-03-23T09:31:35.271Z,62.13
2019-03-23T09:34:06.417Z,60.67
2019-03-23T09:36:38.597Z,60.12
2019-03-23T09:39:09.765Z,59.48
2019-03-23T09:41:40.789Z,58.79
2019-03-23T09:44:12.847Z,59.35
2019-03-23T09:46:43.980Z,62.00
2019-03-23T09:49:15.234Z,60.85
2019-03-23T09:51:46.336Z,59.49
2019-03-23T09:54:17.631Z,58.67
2019-03-23T09:56:49.700Z,60.43
2019-03-23T09:59:20.681Z,64.34
2019-03-23T10:01:52.644Z,64.62
2019-03-23T10:04:23.753Z,63.56
2019-03-23T10:06:54.628Z,63.56
2019-03-23T10:09:25.635Z,63.17
2019-03-23T10:11:59.095Z,62.02
2019-03-23T10:14:30.634Z,62.36
2019-03-23T10:17:01.756Z,62.03
2019-03-23T10:19:32.824Z,61.70
2019-03-23T10:22:04.042Z,60.70
2019-03-23T10:24:35.073Z,61.41
2019-03-23T10:27:07.825Z,59.90
2019-03-23T10:29:38.833Z,59.72
2019-03-23T10:32:09.830Z,58.54
2019-03-23T10:34:41.642Z,59.39
2019-03-23T10:37:12.700Z,60.66
2019-03-23T10:39:43.877Z,59.64
2019-03-23T10:42:16.274Z,59.71
2019-03-23T10:44:49.583Z,58.76
2019-03-23T10:47:23.564Z,59.77
2019-03-23T10:49:56.870Z,60.04
2019-03-23T10:52:29.252Z,60.22
2019-03-23T10:55:01.777Z,61.64
2019-03-23T10:57:32.921Z,61.67
2019-03-23T11:00:11.127Z,62.53
2019-03-23T11:02:42.292Z,62.67
2019-03-23T11:05:13.442Z,62.06
2019-03-23T11:07:44.968Z,61.62
2019-03-23T11:10:18.216Z,62.55
2019-03-23T11:12:49.326Z,61.39
2019-03-23T11:15:22.255Z,62.40
2019-03-23T11:17:53.265Z,61.49
2019-03-23T11:20:24.230Z,62.07
2019-03-23T11:22:57.668Z,59.27
2019-03-23T11:25:28.805Z,59.77
2019-03-23T11:28:05.721Z,59.25
2019-03-23T11:30:37.647Z,59.22
2019-03-23T11:33:09.322Z,57.79
2019-03-23T11:35:40.390Z,57.30
2019-03-23T11:38:11.794Z,57.19
2019-03-23T11:40:52.188Z,58.50
2019-03-23T11:43:16.073Z,58.42
2019-03-23T11:45:47.320Z,58.85
2019-03-23T11:48:18.507Z,58.47
2019-03-23T11:50:49.610Z,57.77
2019-03-23T11:53:20.974Z,56.79
2019-03-23T11:55:52.003Z,55.77
2019-03-23T11:58:23.228Z,56.02
2019-03-23T12:00:54.510Z,55.13
2019-03-23T12:03:25.736Z,56.09
2019-03-23T12:05:57.478Z,55.54
2019-03-23T12:08:28.494Z,56.62
2019-03-23T12:11:03.119Z,55.74
2019-03-23T12:13:34.055Z,56.09
2019-03-23T12:16:07.214Z,56.76
2019-03-23T12:18:41.605Z,56.42
2019-03-23T12:21:12.930Z,55.84
2019-03-23T12:23:44.208Z,56.18
2019-03-23T12:26:23.847Z,55.77
2019-03-23T12:28:57.760Z,56.26
2019-03-23T12:31:28.876Z,57.14
2019-03-23T12:34:00.098Z,56.51
2019-03-23T12:36:32.208Z,56.96
2019-03-23T12:39:05.534Z,56.96
2019-03-23T12:41:38.040Z,55.84
2019-03-23T12:44:09.542Z,55.36
2019-03-23T12:46:48.283Z,54.91
2019-03-23T12:49:15.641Z,54.27
2019-03-23T12:51:46.716Z,54.95
2019-03-23T12:54:17.781Z,55.00
2019-03-23T12:59:10.772Z,55.81
2019-03-23T13:01:43.062Z,55.60
2019-03-23T13:04:16.215Z,55.21
2019-03-23T13:06:47.798Z,54.62
2019-03-23T13:09:19.910Z,54.79
2019-03-23T13:11:50.866Z,54.61
2019-03-23T13:14:27.273Z,54.36
2019-03-23T13:16:59.625Z,54.46
2019-03-23T13:19:35.617Z,54.78
2019-03-23T13:22:06.760Z,55.13
2019-03-23T13:24:37.944Z,55.35
2019-03-23T13:27:08.926Z,55.89
2019-03-23T13:29:42.842Z,55.51
2019-03-23T13:32:13.844Z,55.67
2019-03-23T13:34:47.116Z,55.46
2019-03-23T13:37:18.247Z,55.61
2019-03-23T13:39:49.802Z,54.79
2019-03-23T13:42:20.781Z,55.67
2019-03-23T13:44:53.420Z,55.33
2019-03-23T13:47:24.705Z,55.44
2019-03-23T13:49:55.761Z,55.61
2019-03-23T13:52:26.915Z,55.64
2019-03-23T13:54:57.960Z,56.96
2019-03-23T13:57:30.757Z,56.23
2019-03-23T14:00:02.131Z,56.59
2019-03-23T14:02:34.354Z,56.38
2019-03-23T14:05:12.234Z,56.88
2019-03-23T14:07:38.759Z,57.13
2019-03-23T14:10:10.497Z,57.02
2019-03-23T14:12:42.505Z,58.10
2019-03-23T14:15:13.776Z,58.10
2019-03-23T14:17:45.954Z,58.40
2019-03-23T14:20:17.236Z,58.79
2019-03-23T14:22:48.381Z,58.99
2019-03-23T14:25:21.933Z,58.74
2019-03-23T14:27:59.164Z,58.96
2019-03-23T14:30:32.234Z,58.80
2019-03-23T14:33:03.313Z,59.06
2019-03-23T14:35:34.487Z,58.82
2019-03-23T14:38:05.695Z,59.25
2019-03-23T14:40:36.850Z,59.09
2019-03-23T14:43:09.168Z,58.88
2019-03-23T14:45:41.064Z,59.49
2019-03-23T14:48:12.209Z,58.87
2019-03-23T14:50:43.539Z,59.70
2019-03-23T14:53:16.851Z,59.25
2019-03-23T14:55:47.955Z,59.59
2019-03-23T14:58:20.999Z,60.01
2019-03-23T15:00:52.178Z,59.57
2019-03-23T15:03:23.484Z,59.78
2019-03-23T15:05:55.750Z,59.90
2019-03-23T15:08:26.895Z,59.72
2019-03-23T15:11:01.050Z,59.69
2019-03-23T15:13:33.239Z,59.92
2019-03-23T15:16:08.664Z,60.33
2019-03-23T15:18:39.978Z,60.44
2019-03-23T15:21:11.262Z,60.44
2019-03-23T15:23:42.567Z,60.46
2019-03-23T15:26:13.813Z,60.80
2019-03-23T15:28:44.960Z,60.67
2019-03-23T15:31:22.626Z,61.15
2019-03-23T15:33:55.439Z,61.18
2019-03-23T15:36:27.204Z,61.02
2019-03-23T15:38:59.792Z,61.36
2019-03-23T15:41:33.206Z,61.31
2019-03-23T15:44:04.470Z,61.60
2019-03-23T15:46:35.504Z,61.64
2019-03-23T15:49:08.874Z,62.04
2019-03-23T15:51:40.326Z,62.13
2019-03-23T15:54:11.774Z,63.11
2019-03-23T15:56:43.036Z,63.28
2019-03-23T15:59:15.300Z,63.60
2019-03-23T16:01:48.689Z,63.44
2019-03-23T16:04:19.843Z,63.53
2019-03-23T16:06:51.591Z,64.38
2019-03-23T16:09:22.782Z,64.27
2019-03-23T16:11:53.854Z,65.31
2019-03-23T16:14:29.537Z,65.86
2019-03-23T16:17:02.016Z,66.48
2019-03-23T16:19:33.423Z,66.68
2019-03-23T16:22:05.224Z,66.88
2019-03-23T16:24:43.126Z,67.07
2019-03-23T16:27:14.571Z,66.83
2019-03-23T16:29:47.980Z,66.98
2019-03-23T16:32:23.380Z,66.84
2019-03-23T16:34:57.941Z,67.06
2019-03-23T16:37:29.690Z,66.84
2019-03-23T16:40:06.089Z,66.63
2019-03-23T16:42:45.324Z,66.32
2019-03-23T16:45:13.059Z,65.96
2019-03-23T16:47:44.728Z,65.98
2019-03-23T16:50:15.897Z,65.55
2019-03-23T16:52:47.042Z,65.30
2019-03-23T16:55:18.268Z,64.90
2019-03-23T16:57:49.340Z,64.67
2019-03-23T17:01:06.901Z,64.27
2019-03-23T17:03:40.044Z,64.27
2019-03-23T17:06:13.488Z,64.38
2019-03-23T17:08:47.331Z,63.95
2019-03-23T17:11:20.168Z,64.36
2019-03-23T17:13:53.449Z,64.23
2019-03-23T17:16:26.933Z,64.26
2019-03-23T17:18:59.201Z,64.06
2019-03-23T17:21:34.015Z,64.02
2019-03-23T17:24:07.060Z,64.28
2019-03-23T17:26:39.420Z,64.60
2019-03-23T17:29:12.826Z,64.45
2019-03-23T17:31:45.010Z,64.74
2019-03-23T17:34:18.480Z,64.91
2019-03-23T17:36:50.450Z,64.72
2019-03-23T17:39:23.766Z,64.32
2019-03-23T17:41:57.379Z,63.97
2019-03-23T17:44:32.418Z,64.49
2019-03-23T17:47:05.411Z,64.09
2019-03-23T17:49:39.571Z,63.28
2019-03-23T17:52:14.914Z,63.15
2019-03-23T17:54:50.173Z,63.36
2019-03-23T17:57:23.155Z,63.39
2019-03-23T18:00:04.059Z,63.12
2019-03-23T18:02:44.211Z,63.86
2019-03-23T18:05:18.025Z,63.49
2019-03-23T18:07:51.570Z,63.68
2019-03-23T18:10:24.855Z,63.68
2019-03-23T18:12:59.072Z,63.55
2019-03-23T18:15:30.996Z,63.28
2019-03-23T18:18:06.854Z,63.58
2019-03-23T18:20:42.515Z,63.93
2019-03-23T18:23:19.040Z,63.80
2019-03-23T18:25:54.109Z,63.73
2019-03-23T18:28:28.298Z,63.75
2019-03-23T18:31:00.490Z,63.74
2019-03-23T18:33:34.072Z,63.80
2019-03-23T18:36:07.008Z,63.95
2019-03-23T18:38:44.680Z,64.02
2019-03-23T18:41:22.111Z,63.98
2019-03-23T18:43:56.151Z,64.36
2019-03-23T18:46:28.617Z,64.13
2019-03-23T18:49:02.157Z,64.24
2019-03-23T18:51:34.896Z,63.93
2019-03-23T18:54:08.694Z,63.72
2019-03-23T18:56:43.148Z,64.10
2019-03-23T18:59:17.365Z,64.27
2019-03-23T19:01:49.377Z,63.89
2019-03-23T19:04:24.184Z,63.83
2019-03-23T19:06:57.631Z,64.04
2019-03-23T19:09:29.127Z,64.34
2019-03-23T19:12:00.419Z,64.21
2019-03-23T19:14:33.158Z,64.17
2019-03-23T19:17:04.562Z,64.10
2019-03-23T19:19:37.921Z,64.26
2019-03-23T19:22:10.350Z,64.54
2019-03-23T19:24:41.913Z,64.68
2019-03-23T19:27:13.722Z,64.85
2019-03-23T19:29:45.654Z,65.29
2019-03-23T19:32:17.406Z,65.29
2019-03-23T19:34:49.648Z,65.25
2019-03-23T19:37:22.549Z,65.48
2019-03-23T19:39:54.118Z,65.80
2019-03-23T19:42:26.810Z,65.46
2019-03-23T19:44:58.112Z,65.71
2019-03-23T19:47:29.841Z,65.68
2019-03-23T19:50:06.036Z,65.83
2019-03-23T19:52:37.332Z,65.71
2019-03-23T19:55:09.120Z,65.87
2019-03-23T19:57:40.386Z,65.91
2019-03-23T20:00:12.996Z,66.30
2019-03-23T20:02:45.401Z,65.34
2019-03-23T20:05:17.277Z,65.73
2019-03-23T20:07:54.804Z,65.82
2019-03-23T20:10:26.167Z,65.55
2019-03-23T20:12:57.828Z,65.62
2019-03-23T20:15:29.570Z,65.95
2019-03-23T20:18:02.973Z,65.92
2019-03-23T20:20:35.243Z,65.83
2019-03-23T20:23:07.914Z,66.07
2019-03-23T20:25:39.918Z,65.78
2019-03-23T20:28:11.534Z,65.96
2019-03-23T20:30:42.881Z,65.94
2019-03-23T20:33:19.242Z,65.79
2019-03-23T20:35:47.177Z,65.79
2019-03-23T20:38:19.585Z,65.78
2019-03-23T20:40:51.235Z,65.71
2019-03-23T20:43:24.129Z,65.92
2019-03-23T20:45:55.598Z,65.89
2019-03-23T20:48:26.780Z,66.26
2019-03-23T20:50:59.203Z,65.89
2019-03-23T20:53:30.377Z,65.88
2019-03-23T20:56:01.628Z,66.07
2019-03-23T20:58:33.231Z,65.95
2019-03-23T21:01:06.343Z,65.93
2019-03-23T21:03:37.929Z,65.95
2019-03-23T21:06:12.513Z,66.06
2019-03-23T21:08:46.975Z,65.85
2019-03-23T21:11:24.752Z,65.55
2019-03-23T21:13:56.182Z,65.99
2019-03-23T21:16:27.306Z,65.72
2019-03-23T21:18:58.431Z,65.66
2019-03-23T21:21:29.577Z,65.58
2019-03-23T21:24:00.836Z,65.68
2019-03-23T21:26:32.036Z,65.62
2019-03-23T21:29:04.194Z,65.89
2019-03-23T21:31:36.618Z,65.76
2019-03-23T21:34:08.181Z,65.74
2019-03-23T21:36:39.316Z,65.80
2019-03-23T21:39:11.227Z,65.79
2019-03-23T21:41:43.854Z,65.88
2019-03-23T21:44:15.160Z,65.93
2019-03-23T21:46:46.680Z,65.52
2019-03-23T21:49:17.934Z,65.36
2019-03-23T21:51:50.110Z,65.47
2019-03-23T21:54:22.027Z,65.77
2019-03-23T21:56:56.523Z,66.30
2019-03-23T21:59:27.733Z,65.95
2019-03-23T22:01:58.960Z,65.99
2019-03-23T22:04:31.006Z,66.21
2019-03-23T22:07:02.479Z,66.45
2019-03-23T22:09:35.722Z,66.47
2019-03-23T22:12:06.671Z,66.39
2019-03-23T22:14:41.877Z,66.59
2019-03-23T22:17:10.646Z,66.99
2019-03-23T22:19:42.259Z,67.19
2019-03-23T22:22:13.254Z,67.44
2019-03-23T22:24:46.111Z,67.73
2019-03-23T22:27:19.089Z,68.09
2019-03-23T22:29:50.346Z,68.21
2019-03-23T22:32:21.596Z,68.48
2019-03-23T22:34:52.753Z,68.60
2019-03-23T22:37:24.074Z,68.80
2019-03-23T22:39:56.161Z,69.20
2019-03-23T22:42:27.411Z,68.84
2019-03-23T22:44:58.787Z,69.00
2019-03-23T22:47:29.921Z,69.15
2019-03-23T22:50:01.149Z,69.40
2019-03-23T22:52:32.362Z,69.45
2019-03-23T22:55:03.846Z,69.88
2019-03-23T22:57:35.156Z,69.40
2019-03-23T23:00:18.383Z,69.34
2019-03-23T23:02:51.203Z,69.67
2019-03-23T23:05:22.525Z,69.92
2019-03-23T23:07:53.970Z,69.99
2019-03-23T23:10:25.427Z,70.02
2019-03-23T23:12:56.565Z,69.96
2019-03-23T23:15:28.974Z,69.97
2019-03-23T23:18:00.595Z,70.08
2019-03-23T23:20:32.159Z,70.12
2019-03-23T23:23:03.498Z,70.24
2019-03-23T23:25:34.768Z,70.32
2019-03-23T23:28:06.200Z,70.38
2019-03-23T23:30:37.678Z,70.46
2019-03-23T23:33:08.784Z,70.67
2019-03-23T23:35:39.968Z,70.86
2019-03-23T23:38:11.112Z,70.95
2019-03-23T23:40:43.662Z,70.65
2019-03-23T23:43:14.828Z,70.62
2019-03-23T23:45:46.373Z,70.77
2019-03-23T23:48:17.824Z,70.67
2019-03-23T23:50:49.301Z,70.35
2019-03-23T23:53:20.625Z,70.15
2019-03-23T23:56:06.514Z,70.22
2019-03-23T23:58:37.761Z,70.41
